Time,TemperatureF,DewpointF,PressureIn,WindDirection,WindDirectionDegrees,WindSpeedMPH,WindSpeedGustMPH,Humidity,HourlyPrecipIn,Conditions,Clouds,dailyrainin,SoftwareType,DateUTC
2013-03-08 00:09:00,-999.0,-99.9,30.21,North,-999,-999.0,-999.0,-999,0.00,,,0.00,weatherlink.com 1.10,2013-03-08 05:09:00,
2013-03-08 00:24:00,-999.0,-99.9,30.22,North,-999,-999.0,-999.0,-999,0.00,,,0.00,weatherlink.com 1.10,2013-03-08 05:24:00,
2013-03-08 00:39:00,-999.0,-99.9,30.21,North,-999,-999.0,-999.0,-999,0.00,,,0.00,weatherlink.com 1.10,2013-03-08 05:39:00,
2013-03-08 00:54:00,-999.0,-99.9,30.21,North,-999,-999.0,-999.0,-999,0.00,,,0.00,weatherlink.com 1.10,2013-03-08 05:54:00,
2013-03-08 01:09:00,-999.0,-99.9,30.21,North,-999,-999.0,-999.0,-999,0.00,,,0.00,weatherlink.com 1.10,2013-03-08 06:09:00,
2013-03-08 01:24:00,-999.0,-99.9,30.21,North,-999,-999.0,-999.0,-999,0.00,,,0.00,weatherlink.com 1.10,2013-03-08 06:24:00,
2013-03-08 01:39:00,-999.0,-99.9,30.21,North,-999,-999.0,-999.0,-999,0.00,,,0.00,weatherlink.com 1.10,2013-03-08 06:39:00,
2013-03-08 01:54:00,-999.0,-99.9,30.21,North,-999,-999.0,-999.0,-999,0.00,,,0.00,weatherlink.com 1.10,2013-03-08 06:54:00,
2013-03-08 02:09:00,-999.0,-99.9,30.21,North,-999,-999.0,-999.0,-999,0.00,,,0.00,weatherlink.com 1.10,2013-03-08 07:09:00,
2013-03-08 02:24:00,-999.0,-99.9,30.20,North,-999,-999.0,-999.0,-999,0.00,,,0.00,weatherlink.com 1.10,2013-03-08 07:24:00,
2013-03-08 02:39:00,-999.0,-99.9,30.19,North,-999,-999.0,-999.0,-999,0.00,,,0.00,weatherlink.com 1.10,2013-03-08 07:39:00,
2013-03-08 02:54:00,-999.0,-99.9,30.19,North,-999,-999.0,-999.0,-999,0.00,,,0.00,weatherlink.com 1.10,2013-03-08 07:54:00,
2013-03-08 03:09:00,-999.0,-99.9,30.19,North,-999,-999.0,-999.0,-999,0.00,,,0.00,weatherlink.com 1.10,2013-03-08 08:09:00,
2013-03-08 03:25:00,-999.0,-99.9,30.19,North,-999,-999.0,-999.0,-999,0.00,,,0.00,weatherlink.com 1.10,2013-03-08 08:25:00,
2013-03-08 03:40:00,-999.0,-99.9,30.18,North,-999,-999.0,-999.0,-999,0.00,,,0.00,weatherlink.com 1.10,2013-03-08 08:40:00,
2013-03-08 03:55:00,-999.0,-99.9,30.18,North,-999,-999.0,-999.0,-999,0.00,,,0.00,weatherlink.com 1.10,2013-03-08 08:55:00,
2013-03-08 04:10:00,-999.0,-99.9,30.18,North,-999,-999.0,-999.0,-999,0.00,,,0.00,weatherlink.com 1.10,2013-03-08 09:10:00,
2013-03-08 04:25:00,-999.0,-99.9,30.18,North,-999,-999.0,-999.0,-999,0.00,,,0.00,weatherlink.com 1.10,2013-03-08 09:25:00,
2013-03-08 04:40:00,-999.0,-99.9,30.18,North,-999,-999.0,-999.0,-999,0.00,,,0.00,weatherlink.com 1.10,2013-03-08 09:40:00,
2013-03-08 04:55:00,-999.0,-99.9,30.18,North,-999,-999.0,-999.0,-999,0.00,,,0.00,weatherlink.com 1.10,2013-03-08 09:55:00,
2013-03-08 05:10:00,-999.0,-99.9,30.18,North,-999,-999.0,-999.0,-999,0.00,,,0.00,weatherlink.com 1.10,2013-03-08 10:10:00,
2013-03-08 05:25:00,-999.0,-99.9,30.19,North,-999,-999.0,-999.0,-999,0.00,,,0.00,weatherlink.com 1.10,2013-03-08 10:25:00,
2013-03-08 05:40:00,-999.0,-99.9,30.19,North,-999,-999.0,-999.0,-999,0.00,,,0.00,weatherlink.com 1.10,2013-03-08 10:40:00,
2013-03-08 05:55:00,-999.0,-99.9,30.20,North,-999,-999.0,-999.0,-999,0.00,,,0.00,weatherlink.com 1.10,2013-03-08 10:55:00,
2013-03-08 06:10:00,-999.0,-99.9,30.21,North,-999,-999.0,-999.0,-999,0.00,,,0.00,weatherlink.com 1.10,2013-03-08 11:10:00,
2013-03-08 06:25:00,-999.0,-99.9,30.21,North,-999,-999.0,-999.0,-999,0.00,,,0.00,weatherlink.com 1.10,2013-03-08 11:25:00,
2013-03-08 06:40:00,-999.0,-99.9,30.21,North,-999,-999.0,-999.0,-999,0.00,,,0.00,weatherlink.com 1.10,2013-03-08 11:40:00,
2013-03-08 06:56:00,-999.0,-99.9,30.21,North,-999,-999.0,-999.0,-999,0.00,,,0.00,weatherlink.com 1.10,2013-03-08 11:56:00,
2013-03-08 07:11:00,-999.0,-99.9,30.22,North,-999,-999.0,-999.0,-999,0.00,,,0.00,weatherlink.com 1.10,2013-03-08 12:11:00,
2013-03-08 07:26:00,-999.0,-99.9,30.22,North,-999,-999.0,-999.0,-999,0.00,,,0.00,weatherlink.com 1.10,2013-03-08 12:26:00,
2013-03-08 07:41:00,35.9,21.0,30.23,SE,141,1.0,4.0,56,0.00,,,0.00,weatherlink.com 1.10,2013-03-08 12:41:00,
2013-03-08 07:56:00,37.1,21.0,30.24,SSW,194,4.0,7.0,53,0.00,,,0.00,weatherlink.com 1.10,2013-03-08 12:56:00,
2013-03-08 08:11:00,37.7,21.0,30.25,ENE,76,1.0,3.0,51,0.00,,,0.00,weatherlink.com 1.10,2013-03-08 13:11:00,
2013-03-08 08:26:00,37.8,21.0,30.25,SSW,213,3.0,7.0,50,0.00,,,0.00,weatherlink.com 1.10,2013-03-08 13:26:00,
2013-03-08 08:41:00,37.7,20.0,30.23,ENE,70,2.0,6.0,49,0.00,,,0.00,weatherlink.com 1.10,2013-03-08 13:41:00,
2013-03-08 08:56:00,38.2,19.0,30.24,NE,38,1.0,6.0,46,0.00,,,0.00,weatherlink.com 1.10,2013-03-08 13:56:00,
2013-03-08 09:11:00,39.7,20.0,30.27,East,94,2.0,4.0,45,0.00,,,0.00,weatherlink.com 1.10,2013-03-08 14:11:00,
2013-03-08 09:26:00,39.7,20.0,30.27,SSE,153,1.0,4.0,46,0.00,,,0.00,weatherlink.com 1.10,2013-03-08 14:26:00,
2013-03-08 09:42:00,41.4,21.0,30.27,SSE,154,0.0,4.0,44,0.00,,,0.00,weatherlink.com 1.10,2013-03-08 14:42:00,
2013-03-08 09:59:00,41.5,20.0,30.27,NE,52,3.0,5.0,43,0.00,,,0.00,weatherlink.com 1.10,2013-03-08 14:59:00,
2013-03-08 10:11:00,42.2,20.0,30.27,SW,219,2.0,7.0,41,0.00,,,0.00,weatherlink.com 1.10,2013-03-08 15:11:00,
2013-03-08 10:26:00,42.5,21.0,30.28,ESE,114,1.0,5.0,43,0.00,,,0.00,weatherlink.com 1.10,2013-03-08 15:26:00,
2013-03-08 10:41:00,42.8,22.0,30.27,East,98,1.0,7.0,43,0.00,,,0.00,weatherlink.com 1.10,2013-03-08 15:41:00,
2013-03-08 10:56:00,43.7,21.0,30.27,East,92,0.0,5.0,40,0.00,,,0.00,weatherlink.com 1.10,2013-03-08 15:56:00,
2013-03-08 11:11:00,43.7,19.0,30.26,East,82,3.0,7.0,37,0.00,,,0.00,weatherlink.com 1.10,2013-03-08 16:11:00,
2013-03-08 11:26:00,44.4,19.0,30.26,SE,128,1.0,3.0,37,0.00,,,0.00,weatherlink.com 1.10,2013-03-08 16:26:00,
2013-03-08 11:41:00,45.7,19.0,30.24,North,9,0.0,5.0,35,0.00,,,0.00,weatherlink.com 1.10,2013-03-08 16:41:00,
2013-03-08 11:56:00,46.4,20.0,30.24,SSE,164,0.0,5.0,35,0.00,,,0.00,weatherlink.com 1.10,2013-03-08 16:56:00,
2013-03-08 12:11:00,46.9,22.0,30.24,NNE,17,0.0,5.0,37,0.00,,,0.00,weatherlink.com 1.10,2013-03-08 17:11:00,
2013-03-08 12:26:00,46.7,20.0,30.24,SE,143,1.0,4.0,35,0.00,,,0.00,weatherlink.com 1.10,2013-03-08 17:26:00,
2013-03-08 12:41:00,48.4,19.0,30.23,ENE,67,1.0,5.0,31,0.00,,,0.00,weatherlink.com 1.10,2013-03-08 17:41:00,
2013-03-08 12:56:00,48.5,19.0,30.23,East,79,3.0,7.0,31,0.00,,,0.00,weatherlink.com 1.10,2013-03-08 17:56:00,
2013-03-08 13:11:00,48.2,21.0,30.22,East,80,2.0,5.0,34,0.00,,,0.00,weatherlink.com 1.10,2013-03-08 18:11:00,
2013-03-08 13:26:00,49.0,21.0,30.22,SSW,196,0.0,9.0,33,0.00,,,0.00,weatherlink.com 1.10,2013-03-08 18:26:00,
2013-03-08 13:41:00,48.7,20.0,30.21,East,89,0.0,3.0,32,0.00,,,0.00,weatherlink.com 1.10,2013-03-08 18:41:00,
2013-03-08 13:56:00,47.8,21.0,30.20,ENE,71,1.0,7.0,35,0.00,,,0.00,weatherlink.com 1.10,2013-03-08 18:56:00,
2013-03-08 14:12:00,47.6,21.0,30.20,SW,215,0.0,9.0,35,0.00,,,0.00,weatherlink.com 1.10,2013-03-08 19:12:00,
2013-03-08 14:27:00,47.9,23.0,30.19,SSW,206,0.0,6.0,38,0.00,,,0.00,weatherlink.com 1.10,2013-03-08 19:27:00,
2013-03-08 14:41:00,47.8,22.0,30.20,SSW,207,3.0,8.0,37,0.00,,,0.00,weatherlink.com 1.10,2013-03-08 19:41:00,
2013-03-08 14:56:00,49.0,22.0,30.20,ENE,60,0.0,4.0,35,0.00,,,0.00,weatherlink.com 1.10,2013-03-08 19:56:00,
2013-03-08 15:12:00,47.9,22.0,30.20,SW,217,2.0,5.0,36,0.00,,,0.00,weatherlink.com 1.10,2013-03-08 20:12:00,
2013-03-08 15:27:00,48.4,22.0,30.20,SW,229,1.0,7.0,36,0.00,,,0.00,weatherlink.com 1.10,2013-03-08 20:27:00,
2013-03-08 15:42:00,49.1,22.0,30.20,WSW,241,0.0,6.0,35,0.00,,,0.00,weatherlink.com 1.10,2013-03-08 20:42:00,
2013-03-08 15:57:00,47.9,23.0,30.20,East,98,0.0,7.0,37,0.00,,,0.00,weatherlink.com 1.10,2013-03-08 20:57:00,
2013-03-08 16:27:00,46.9,23.0,30.21,East,92,2.0,4.0,39,0.00,,,0.00,weatherlink.com 1.10,2013-03-08 21:27:00,
2013-03-08 16:41:00,46.1,22.0,30.22,NE,55,0.0,13.0,39,0.00,,,0.00,weatherlink.com 1.10,2013-03-08 21:41:00,
2013-03-08 16:56:00,46.0,22.0,30.22,NE,52,1.0,4.0,39,0.00,,,0.00,weatherlink.com 1.10,2013-03-08 21:56:00,
2013-03-08 17:12:00,45.6,22.0,30.22,ENE,69,3.0,4.0,40,0.00,,,0.00,weatherlink.com 1.10,2013-03-08 22:12:00,
2013-03-08 17:27:00,44.7,23.0,30.22,ENE,71,2.0,6.0,42,0.00,,,0.00,weatherlink.com 1.10,2013-03-08 22:27:00,
2013-03-08 17:41:00,44.1,23.0,30.22,ENE,65,1.0,4.0,44,0.00,,,0.00,weatherlink.com 1.10,2013-03-08 22:41:00,
2013-03-08 17:56:00,43.7,23.0,30.23,East,92,0.0,3.0,45,0.00,,,0.00,weatherlink.com 1.10,2013-03-08 22:56:00,
2013-03-08 18:12:00,43.0,24.0,30.23,SE,142,0.0,3.0,47,0.00,,,0.00,weatherlink.com 1.10,2013-03-08 23:12:00,
2013-03-08 18:27:00,42.4,23.0,30.24,South,175,0.0,2.0,47,0.00,,,0.00,weatherlink.com 1.10,2013-03-08 23:27:00,
2013-03-08 18:41:00,41.8,23.0,30.24,SSW,202,0.0,3.0,48,0.00,,,0.00,weatherlink.com 1.10,2013-03-08 23:41:00,
2013-03-08 18:56:00,41.5,22.0,30.25,WSW,248,0.0,4.0,47,0.00,,,0.00,weatherlink.com 1.10,2013-03-08 23:56:00,
2013-03-08 19:11:00,41.1,24.0,30.25,SSW,202,2.0,4.0,50,0.00,,,0.00,weatherlink.com 1.10,2013-03-09 00:11:00,
2013-03-08 19:26:00,40.5,24.0,30.24,WSW,250,0.0,1.0,52,0.00,,,0.00,weatherlink.com 1.10,2013-03-09 00:26:00,
2013-03-08 19:41:00,40.5,24.0,30.25,WSW,250,0.0,4.0,52,0.00,,,0.00,weatherlink.com 1.10,2013-03-09 00:41:00,
2013-03-08 19:56:00,39.7,24.0,30.25,WSW,250,0.0,1.0,53,0.00,,,0.00,weatherlink.com 1.10,2013-03-09 00:56:00,
2013-03-08 20:11:00,39.2,23.0,30.26,WSW,250,0.0,0.0,53,0.00,,,0.00,weatherlink.com 1.10,2013-03-09 01:11:00,
2013-03-08 20:26:00,39.2,24.0,30.26,East,90,2.0,3.0,54,0.00,,,0.00,weatherlink.com 1.10,2013-03-09 01:26:00,
2013-03-08 20:41:00,39.4,23.0,30.26,SSW,203,0.0,2.0,53,0.00,,,0.00,weatherlink.com 1.10,2013-03-09 01:41:00,
2013-03-08 20:56:00,39.2,24.0,30.26,SSW,203,0.0,2.0,54,0.00,,,0.00,weatherlink.com 1.10,2013-03-09 01:56:00,
2013-03-08 21:11:00,38.5,23.0,30.26,SSW,203,0.0,0.0,55,0.00,,,0.00,weatherlink.com 1.10,2013-03-09 02:11:00,
2013-03-08 21:26:00,37.8,24.0,30.27,SSW,202,0.0,0.0,57,0.00,,,0.00,weatherlink.com 1.10,2013-03-09 02:26:00,
2013-03-08 21:41:00,36.9,23.0,30.28,SSW,202,0.0,0.0,58,0.00,,,0.00,weatherlink.com 1.10,2013-03-09 02:41:00,
2013-03-08 21:56:00,-999.0,-99.9,30.29,North,-999,-999.0,-999.0,-999,0.00,,,0.00,weatherlink.com 1.10,2013-03-09 02:56:00,
2013-03-08 22:11:00,-999.0,-99.9,30.30,North,-999,-999.0,-999.0,-999,0.00,,,0.00,weatherlink.com 1.10,2013-03-09 03:11:00,
2013-03-08 22:27:00,-999.0,-99.9,30.30,North,-999,-999.0,-999.0,-999,0.00,,,0.00,weatherlink.com 1.10,2013-03-09 03:27:00,
2013-03-08 22:42:00,-999.0,-99.9,30.30,North,-999,-999.0,-999.0,-999,0.00,,,0.00,weatherlink.com 1.10,2013-03-09 03:42:00,
2013-03-08 22:59:00,-999.0,-99.9,30.30,North,-999,-999.0,-999.0,-999,0.00,,,0.00,weatherlink.com 1.10,2013-03-09 03:59:00,
2013-03-08 23:12:00,-999.0,-99.9,30.30,North,-999,-999.0,-999.0,-999,0.00,,,0.00,weatherlink.com 1.10,2013-03-09 04:12:00,
2013-03-08 23:27:00,-999.0,-99.9,30.29,North,-999,-999.0,-999.0,-999,0.00,,,0.00,weatherlink.com 1.10,2013-03-09 04:27:00,
2013-03-08 23:42:00,-999.0,-99.9,30.30,North,-999,-999.0,-999.0,-999,0.00,,,0.00,weatherlink.com 1.10,2013-03-09 04:42:00,
2013-03-08 23:57:00,-999.0,-99.9,30.29,North,-999,-999.0,-999.0,-999,0.00,,,0.00,weatherlink.com 1.10,2013-03-09 04:57:00,